createdAt,value
2023-08-26T00:00:25.542Z,5.43
2023-08-26T00:02:57.597Z,6.40
2023-08-26T00:05:29.389Z,7.60
2023-08-26T00:08:01.305Z,5.57
2023-08-26T00:10:34.396Z,5.10
2023-08-26T00:13:06.294Z,6.33
2023-08-26T00:15:38.291Z,5.13
2023-08-26T00:18:12.690Z,5.37
2023-08-26T00:20:44.874Z,5.10
2023-08-26T00:23:16.749Z,6.93
2023-08-26T00:25:49.957Z,5.60
2023-08-26T00:28:21.833Z,4.77
2023-08-26T00:31:03.650Z,7.13
2023-08-26T00:33:35.569Z,7.93
2023-08-26T00:36:07.572Z,5.10
2023-08-26T00:38:39.392Z,6.33
2023-08-26T00:41:12.625Z,8.93
2023-08-26T00:43:44.384Z,6.50
2023-08-26T00:46:16.267Z,6.10
2023-08-26T00:48:48.103Z,6.40
2023-08-26T00:51:20.606Z,5.63
2023-08-26T00:53:54.250Z,6.07
2023-08-26T00:56:28.300Z,7.00
2023-08-26T00:59:00.014Z,5.77
2023-08-26T01:01:34.094Z,6.43
2023-08-26T01:04:06.870Z,6.57
2023-08-26T01:06:38.751Z,5.53
2023-08-26T01:09:10.672Z,6.27
2023-08-26T01:11:59.761Z,6.60
2023-08-26T01:14:40.166Z,8.40
2023-08-26T01:17:13.472Z,6.00
2023-08-26T01:19:47.682Z,5.73
2023-08-26T01:22:25.281Z,7.40
2023-08-26T01:24:59.207Z,5.53
2023-08-26T01:27:31.113Z,8.63
2023-08-26T01:30:04.846Z,8.50
2023-08-26T01:32:48.621Z,6.37
2023-08-26T01:35:30.974Z,6.73
2023-08-26T01:38:04.820Z,9.30
2023-08-26T01:40:42.997Z,6.67
2023-08-26T01:43:15.178Z,6.63
2023-08-26T01:45:46.788Z,6.97
2023-08-26T01:48:18.770Z,8.10
2023-08-26T01:50:50.715Z,6.90
2023-08-26T01:53:22.577Z,7.87
2023-08-26T01:55:55.822Z,11.63
2023-08-26T01:58:27.718Z,9.27
2023-08-26T02:00:59.638Z,8.60
2023-08-26T02:03:31.600Z,7.93
2023-08-26T02:06:03.422Z,8.63
2023-08-26T02:08:35.410Z,8.07
2023-08-26T02:11:09.740Z,10.37
2023-08-26T02:13:41.398Z,7.60
2023-08-26T02:16:13.288Z,8.83
2023-08-26T02:18:46.423Z,8.63
2023-08-26T02:21:18.097Z,10.23
2023-08-26T02:23:49.843Z,9.20
2023-08-26T02:26:23.037Z,10.60
2023-08-26T02:28:56.378Z,10.43
2023-08-26T02:31:28.782Z,11.77
2023-08-26T02:34:00.508Z,14.10
2023-08-26T02:36:32.335Z,11.90
2023-08-26T02:39:04.251Z,13.13
2023-08-26T02:41:37.588Z,11.83
2023-08-26T02:44:09.461Z,12.77
2023-08-26T02:46:42.762Z,12.90
2023-08-26T02:49:14.706Z,13.13
2023-08-26T02:51:46.668Z,12.50
2023-08-26T02:54:18.490Z,13.33
2023-08-26T02:56:52.597Z,12.97
2023-08-26T02:59:24.281Z,15.13
2023-08-26T03:02:02.542Z,14.10
2023-08-26T03:04:34.343Z,13.80
2023-08-26T03:07:06.156Z,15.70
2023-08-26T03:09:38.020Z,17.13
2023-08-26T03:12:12.335Z,20.10
2023-08-26T03:14:44.330Z,20.27
2023-08-26T03:17:16.213Z,18.70
2023-08-26T03:19:48.107Z,19.83
2023-08-26T03:22:20.035Z,23.03
2023-08-26T03:24:52.162Z,21.20
2023-08-26T03:27:26.098Z,21.43
2023-08-26T03:29:58.061Z,26.13
2023-08-26T03:32:31.443Z,21.00
2023-08-26T03:35:04.009Z,20.63
2023-08-26T03:37:35.961Z,22.97
2023-08-26T03:40:10.254Z,26.37
2023-08-26T03:42:45.819Z,29.07
2023-08-26T03:45:17.838Z,25.97
2023-08-26T03:47:49.678Z,23.93
2023-08-26T03:50:21.686Z,24.77
2023-08-26T03:52:53.496Z,27.80
2023-08-26T03:55:25.381Z,28.73
2023-08-26T03:57:58.647Z,27.73
2023-08-26T04:00:30.748Z,35.23
2023-08-26T04:03:02.623Z,31.93
2023-08-26T04:05:34.664Z,32.67
2023-08-26T04:08:07.973Z,33.83
2023-08-26T04:10:39.904Z,36.87
2023-08-26T04:13:27.546Z,36.33
2023-08-26T04:16:04.830Z,38.37
2023-08-26T04:18:35.965Z,39.80
2023-08-26T04:21:08.406Z,39.63
2023-08-26T04:23:40.291Z,43.83
2023-08-26T04:26:12.174Z,42.27
2023-08-26T04:28:45.316Z,41.70
2023-08-26T04:31:17.742Z,41.33
2023-08-26T04:33:49.414Z,39.33
2023-08-26T04:36:21.347Z,39.80
2023-08-26T04:38:53.255Z,40.93
2023-08-26T04:41:25.901Z,38.07
2023-08-26T04:44:00.492Z,41.70
2023-08-26T04:46:32.936Z,39.90
2023-08-26T04:49:05.810Z,39.53
2023-08-26T04:51:39.577Z,42.70
2023-08-26T04:54:11.323Z,43.40
2023-08-26T04:56:43.201Z,43.97
2023-08-26T04:59:16.405Z,39.77
2023-08-26T05:01:48.588Z,44.37
2023-08-26T05:04:20.762Z,40.83
2023-08-26T05:06:52.342Z,42.37
2023-08-26T05:09:24.222Z,43.83
2023-08-26T05:11:58.226Z,38.10
2023-08-26T05:14:31.343Z,38.83
2023-08-26T05:17:03.189Z,43.50
2023-08-26T05:19:35.109Z,40.37
2023-08-26T05:22:08.046Z,36.67
2023-08-26T05:24:39.752Z,39.83
2023-08-26T05:27:11.612Z,44.63
2023-08-26T05:29:45.225Z,40.70
2023-08-26T05:32:16.877Z,41.00
2023-08-26T05:34:48.897Z,40.40
2023-08-26T05:37:20.766Z,41.07
2023-08-26T05:39:52.615Z,40.77
2023-08-26T05:42:24.548Z,38.20
2023-08-26T05:44:57.567Z,41.03
2023-08-26T05:47:29.425Z,41.03
2023-08-26T05:50:02.278Z,38.10
2023-08-26T05:52:34.195Z,39.60
2023-08-26T05:55:06.294Z,38.00
2023-08-26T05:57:38.185Z,38.00
2023-08-26T06:00:11.810Z,34.57
2023-08-26T06:02:43.606Z,34.93
2023-08-26T06:05:15.646Z,34.33
2023-08-26T06:07:47.552Z,35.73
2023-08-26T06:10:19.655Z,33.20
2023-08-26T06:12:52.127Z,32.27
2023-08-26T06:15:26.369Z,32.67
2023-08-26T06:17:58.359Z,30.00
2023-08-26T06:20:30.750Z,30.20
2023-08-26T06:23:03.753Z,29.30
2023-08-26T06:25:35.711Z,30.50
2023-08-26T06:28:08.635Z,29.73
2023-08-26T06:30:41.664Z,25.77
2023-08-26T06:33:13.732Z,27.00
2023-08-26T06:35:49.698Z,27.77
2023-08-26T06:38:21.728Z,24.17
2023-08-26T06:40:59.254Z,25.47
2023-08-26T06:43:31.764Z,24.00
2023-08-26T06:46:05.475Z,27.63
2023-08-26T06:48:37.417Z,23.63
2023-08-26T06:51:09.352Z,25.67
2023-08-26T06:53:41.337Z,23.90
2023-08-26T06:56:13.340Z,25.20
2023-08-26T06:58:45.278Z,25.33
2023-08-26T07:01:18.516Z,23.10
2023-08-26T07:03:50.574Z,23.97
2023-08-26T07:06:25.028Z,23.33
2023-08-26T07:08:56.742Z,21.70
2023-08-26T07:11:28.619Z,23.23
2023-08-26T07:14:01.657Z,19.73
2023-08-26T07:16:34.813Z,23.07
2023-08-26T07:19:09.850Z,19.53
2023-08-26T07:21:41.503Z,7.97
2023-08-26T07:24:13.736Z,7.73
2023-08-26T07:26:46.047Z,4.67
2023-08-26T07:29:17.691Z,3.80
2023-08-26T07:31:51.011Z,3.20
2023-08-26T07:34:23.033Z,5.43
2023-08-26T07:36:55.032Z,4.67
2023-08-26T07:39:27.016Z,4.87
2023-08-26T07:41:58.880Z,3.67
2023-08-26T07:44:30.896Z,3.53
2023-08-26T07:47:04.146Z,5.40
2023-08-26T07:49:35.939Z,2.33
2023-08-26T07:52:07.853Z,2.77
2023-08-26T07:54:39.883Z,4.73
2023-08-26T07:57:11.730Z,5.20
2023-08-26T07:59:43.664Z,1.90
2023-08-26T08:02:16.622Z,4.03
2023-08-26T08:04:49.684Z,4.03
2023-08-26T08:07:21.626Z,3.33
2023-08-26T08:09:54.460Z,2.43
2023-08-26T08:12:26.448Z,1.73
2023-08-26T08:14:58.455Z,8.87
2023-08-26T08:17:31.553Z,4.00
2023-08-26T08:20:04.183Z,4.27
2023-08-26T08:22:44.375Z,3.73
2023-08-26T08:25:16.825Z,3.30
2023-08-26T08:27:48.701Z,3.67
2023-08-26T08:30:20.646Z,4.13
2023-08-26T08:32:53.969Z,3.10
2023-08-26T08:35:25.936Z,3.07
2023-08-26T08:37:57.862Z,2.17
2023-08-26T08:40:29.740Z,3.43
2023-08-26T08:43:06.765Z,4.10
2023-08-26T08:45:40.957Z,5.33
2023-08-26T08:48:14.647Z,3.47
2023-08-26T08:50:46.673Z,2.37
2023-08-26T08:53:24.156Z,3.77
2023-08-26T08:55:57.610Z,4.00
2023-08-26T08:58:30.668Z,2.30
2023-08-26T09:01:05.353Z,2.47
2023-08-26T09:03:39.437Z,3.23
2023-08-26T09:06:13.687Z,2.50
2023-08-26T09:08:48.229Z,3.87
2023-08-26T09:11:19.874Z,2.30
2023-08-26T09:13:51.979Z,6.83
2023-08-26T09:16:38.375Z,5.73
2023-08-26T09:19:14.167Z,4.40
2023-08-26T09:21:48.017Z,4.67
2023-08-26T09:24:21.195Z,3.10
2023-08-26T09:27:04.129Z,6.63
2023-08-26T09:29:39.257Z,2.90
2023-08-26T09:32:12.246Z,5.07
2023-08-26T09:34:45.463Z,2.83
2023-08-26T09:37:18.898Z,4.57
2023-08-26T09:39:50.840Z,3.40
2023-08-26T09:42:23.560Z,5.43
2023-08-26T09:44:59.019Z,4.63
2023-08-26T09:47:37.374Z,3.80
2023-08-26T09:50:13.043Z,4.00
2023-08-26T09:52:48.451Z,6.17
2023-08-26T09:55:22.010Z,3.70
2023-08-26T09:57:55.189Z,4.13
2023-08-26T10:00:27.442Z,3.03
2023-08-26T10:03:07.474Z,3.67
2023-08-26T10:05:43.450Z,5.13
2023-08-26T10:08:15.835Z,4.17
2023-08-26T10:10:56.243Z,3.80
2023-08-26T10:13:30.017Z,3.07
2023-08-26T10:16:07.879Z,3.70
2023-08-26T10:18:48.217Z,4.07
2023-08-26T10:21:21.688Z,4.27
2023-08-26T10:23:53.981Z,3.40
2023-08-26T10:26:27.608Z,1.93
2023-08-26T10:29:00.790Z,3.53
2023-08-26T10:31:39.949Z,4.17
2023-08-26T10:34:21.378Z,3.43
2023-08-26T10:37:00.190Z,4.80
2023-08-26T10:39:35.849Z,4.07
2023-08-26T10:42:19.739Z,6.20
2023-08-26T10:44:57.245Z,2.97
2023-08-26T10:47:46.060Z,3.70
2023-08-26T10:50:23.220Z,4.87
2023-08-26T10:53:02.166Z,2.27
2023-08-26T10:55:36.601Z,5.30
2023-08-26T10:58:17.706Z,3.07
2023-08-26T11:00:51.463Z,2.97
2023-08-26T11:03:25.057Z,5.27
2023-08-26T11:06:07.520Z,3.23
2023-08-26T11:08:53.643Z,5.23
2023-08-26T11:11:25.981Z,3.57
2023-08-26T11:13:57.622Z,5.60
2023-08-26T11:16:30.111Z,3.27
2023-08-26T11:19:04.992Z,4.03
2023-08-26T11:21:38.183Z,2.93
2023-08-26T11:24:11.343Z,2.13
2023-08-26T11:26:50.000Z,2.67
2023-08-26T11:29:21.633Z,3.63
2023-08-26T11:31:53.979Z,3.27
2023-08-26T11:34:29.466Z,2.50
2023-08-26T11:37:01.592Z,5.83
2023-08-26T11:39:37.612Z,2.70
2023-08-26T11:42:16.524Z,3.47
2023-08-26T11:44:50.738Z,2.87
2023-08-26T11:47:23.638Z,3.77
2023-08-26T11:49:58.801Z,6.10
2023-08-26T11:52:37.391Z,4.40
2023-08-26T11:55:10.086Z,5.40
2023-08-26T11:57:43.216Z,4.13
2023-08-26T12:00:18.547Z,2.87
2023-08-26T12:02:52.097Z,2.73
2023-08-26T12:05:24.225Z,2.83
2023-08-26T12:07:58.229Z,3.10
2023-08-26T12:10:33.089Z,5.23
2023-08-26T12:13:07.994Z,2.23
2023-08-26T12:15:43.209Z,1.90
2023-08-26T12:18:15.467Z,3.77
2023-08-26T12:20:48.475Z,7.00
2023-08-26T12:23:23.668Z,3.20
2023-08-26T12:25:57.509Z,6.50
2023-08-26T12:28:29.978Z,5.77
2023-08-26T12:31:01.829Z,3.87
2023-08-26T12:33:35.954Z,3.67
2023-08-26T12:36:11.906Z,2.80
2023-08-26T12:38:43.886Z,2.47
2023-08-26T12:41:16.820Z,2.40
2023-08-26T12:43:49.504Z,3.73
2023-08-26T12:46:21.242Z,3.17
2023-08-26T12:48:55.548Z,4.03
2023-08-26T12:51:28.191Z,4.23
2023-08-26T12:53:59.955Z,4.50
2023-08-26T12:56:33.026Z,2.80
2023-08-26T12:59:05.021Z,3.23
2023-08-26T13:01:36.889Z,2.33
2023-08-26T13:04:09.581Z,3.83
2023-08-26T13:06:42.496Z,2.87
2023-08-26T13:09:14.485Z,2.93
2023-08-26T13:11:47.593Z,3.40
2023-08-26T13:14:19.491Z,3.20
2023-08-26T13:16:51.899Z,2.67
2023-08-26T13:19:24.059Z,3.97
2023-08-26T13:21:57.643Z,3.63
2023-08-26T13:24:29.619Z,3.00
2023-08-26T13:27:03.139Z,4.70
2023-08-26T13:29:36.571Z,4.03
2023-08-26T13:32:09.345Z,4.40
2023-08-26T13:34:42.687Z,5.83
2023-08-26T13:37:15.417Z,4.87
2023-08-26T13:39:47.502Z,4.63
2023-08-26T13:42:20.717Z,3.47
2023-08-26T13:44:52.640Z,3.17
2023-08-26T13:47:24.548Z,4.07
2023-08-26T13:49:56.442Z,3.23
2023-08-26T13:52:28.364Z,2.43
2023-08-26T13:55:00.248Z,3.23
2023-08-26T13:57:33.202Z,4.63
2023-08-26T14:00:06.755Z,1.97
2023-08-26T14:02:38.793Z,5.97
2023-08-26T14:05:12.409Z,6.60
2023-08-26T14:07:45.547Z,2.47
2023-08-26T14:10:17.247Z,5.97
2023-08-26T14:12:50.258Z,6.13
2023-08-26T14:15:22.262Z,4.90
2023-08-26T14:17:54.034Z,2.93
2023-08-26T14:20:27.375Z,2.43
2023-08-26T14:22:59.246Z,5.60
2023-08-26T14:25:31.572Z,3.77
2023-08-26T14:28:05.438Z,2.60
2023-08-26T14:30:39.831Z,4.27
2023-08-26T14:33:13.652Z,3.50
2023-08-26T14:35:50.342Z,4.03
2023-08-26T14:38:25.036Z,6.57
2023-08-26T14:40:56.939Z,5.30
2023-08-26T14:43:30.091Z,3.57
2023-08-26T14:46:02.001Z,3.27
2023-08-26T14:48:34.052Z,3.57
2023-08-26T14:51:06.635Z,6.77
2023-08-26T14:53:38.364Z,5.07
2023-08-26T14:56:10.319Z,6.20
2023-08-26T14:58:43.361Z,4.63
2023-08-26T15:01:16.770Z,6.47
2023-08-26T15:03:49.493Z,4.13
2023-08-26T15:06:21.223Z,2.27
2023-08-26T15:08:53.142Z,3.10
2023-08-26T15:11:25.052Z,4.73
2023-08-26T15:13:58.343Z,4.37
2023-08-26T15:16:31.805Z,4.37
2023-08-26T15:19:03.932Z,4.67
2023-08-26T15:21:37.220Z,4.83
2023-08-26T15:24:09.942Z,4.33
2023-08-26T15:26:43.337Z,2.70
2023-08-26T15:29:16.581Z,7.40
2023-08-26T15:31:48.978Z,6.30
2023-08-26T15:34:21.337Z,4.83
2023-08-26T15:36:53.057Z,2.60
2023-08-26T15:39:25.494Z,2.17
2023-08-26T15:41:57.372Z,3.53
2023-08-26T15:44:31.676Z,5.97
2023-08-26T15:47:03.478Z,2.57
2023-08-26T15:49:35.350Z,2.50
2023-08-26T15:52:07.260Z,4.23
2023-08-26T15:54:39.153Z,3.93
2023-08-26T15:57:11.655Z,4.90
2023-08-26T15:59:44.635Z,2.10
2023-08-26T16:02:17.935Z,2.87
2023-08-26T16:04:49.801Z,2.80
2023-08-26T16:07:23.192Z,4.07
2023-08-26T16:09:55.169Z,4.53
2023-08-26T16:12:28.441Z,3.03
2023-08-26T16:15:01.727Z,5.40
2023-08-26T16:17:33.673Z,4.20
2023-08-26T16:20:05.783Z,2.73
2023-08-26T16:22:39.034Z,2.90
2023-08-26T16:25:12.991Z,8.53
2023-08-26T16:27:44.907Z,2.50
2023-08-26T16:30:18.354Z,3.30
2023-08-26T16:32:50.434Z,2.90
2023-08-26T16:35:22.209Z,2.70
2023-08-26T16:37:54.127Z,2.50
2023-08-26T16:40:26.046Z,3.50
2023-08-26T16:42:58.140Z,2.37
2023-08-26T16:45:31.627Z,3.70
2023-08-26T16:48:03.587Z,6.03
2023-08-26T16:50:36.845Z,3.77
2023-08-26T16:53:09.522Z,2.33
2023-08-26T16:55:41.858Z,4.07
2023-08-26T16:58:13.555Z,6.90
2023-08-26T17:00:46.768Z,2.23
2023-08-26T17:03:20.207Z,2.47
2023-08-26T17:05:57.130Z,2.63
2023-08-26T17:08:31.569Z,1.70
2023-08-26T17:11:09.248Z,3.27
2023-08-26T17:13:42.511Z,3.53
2023-08-26T17:16:15.750Z,2.27
2023-08-26T17:18:48.640Z,4.07
2023-08-26T17:21:20.519Z,5.07
2023-08-26T17:23:52.666Z,2.97
2023-08-26T17:26:24.360Z,2.43
2023-08-26T17:28:56.264Z,1.70
2023-08-26T17:31:30.090Z,3.60
2023-08-26T17:34:02.061Z,2.50
2023-08-26T17:36:34.222Z,2.80
2023-08-26T17:39:06.146Z,2.60
2023-08-26T17:41:38.002Z,4.10
2023-08-26T17:44:09.848Z,3.63
2023-08-26T17:46:43.027Z,3.67
2023-08-26T17:49:14.950Z,2.40
2023-08-26T17:51:46.921Z,3.53
2023-08-26T17:54:20.767Z,3.10
2023-08-26T17:56:53.532Z,7.13
2023-08-26T17:59:25.438Z,2.67
2023-08-26T18:01:58.579Z,4.67
2023-08-26T18:04:30.453Z,2.43
2023-08-26T18:07:04.262Z,2.20
2023-08-26T18:09:36.210Z,2.43
2023-08-26T18:12:08.728Z,2.83
2023-08-26T18:14:40.496Z,3.07
2023-08-26T18:17:13.689Z,2.93
2023-08-26T18:19:45.574Z,2.67
2023-08-26T18:22:17.471Z,3.33
2023-08-26T18:24:49.492Z,4.37
2023-08-26T18:27:21.327Z,2.23
2023-08-26T18:29:53.256Z,2.37
2023-08-26T18:32:26.579Z,3.37
2023-08-26T18:34:58.490Z,4.30
2023-08-26T18:37:30.308Z,3.53
2023-08-26T18:40:02.239Z,4.50
2023-08-26T18:42:34.606Z,4.50
2023-08-26T18:45:09.661Z,4.53
2023-08-26T18:47:42.826Z,3.30
2023-08-26T18:50:15.720Z,5.00
2023-08-26T18:52:47.793Z,4.77
2023-08-26T18:55:19.817Z,6.23
2023-08-26T18:57:51.726Z,4.00
2023-08-26T19:00:24.135Z,2.67
2023-08-26T19:02:57.619Z,5.03
2023-08-26T19:05:29.592Z,4.47
2023-08-26T19:08:01.608Z,4.50
2023-08-26T19:10:33.509Z,3.97
2023-08-26T19:13:07.184Z,2.70
2023-08-26T19:15:39.448Z,3.90
2023-08-26T19:18:13.127Z,7.53
2023-08-26T19:20:45.006Z,3.63
2023-08-26T19:23:16.942Z,3.00
2023-08-26T19:25:52.364Z,3.33
2023-08-26T19:28:24.346Z,4.50
2023-08-26T19:30:56.426Z,4.33
2023-08-26T19:33:29.411Z,3.67
2023-08-26T19:36:01.324Z,6.03
2023-08-26T19:38:33.283Z,4.17
2023-08-26T19:41:05.189Z,4.83
2023-08-26T19:43:37.054Z,2.97
2023-08-26T19:46:08.960Z,3.50
2023-08-26T19:48:54.600Z,2.80
2023-08-26T19:51:30.029Z,2.30
2023-08-26T19:54:01.699Z,3.80
2023-08-26T19:56:33.595Z,4.27
2023-08-26T19:59:05.862Z,2.53
2023-08-26T20:01:37.781Z,4.40
2023-08-26T20:04:11.682Z,5.13
2023-08-26T20:06:43.541Z,3.57
2023-08-26T20:09:15.583Z,3.53
2023-08-26T20:11:47.534Z,4.67
2023-08-26T20:14:19.528Z,5.33
2023-08-26T20:16:51.463Z,3.60
2023-08-26T20:19:25.047Z,4.47
2023-08-26T20:21:59.213Z,3.63
2023-08-26T20:24:32.174Z,3.17
2023-08-26T20:27:04.022Z,4.07
2023-08-26T20:29:36.406Z,4.47
2023-08-26T20:32:09.282Z,4.63
2023-08-26T20:34:42.295Z,3.50
2023-08-26T20:37:14.286Z,3.70
2023-08-26T20:39:46.209Z,4.20
2023-08-26T20:42:18.237Z,4.07
2023-08-26T20:44:50.098Z,3.53
2023-08-26T20:47:22.075Z,2.90
2023-08-26T20:50:01.626Z,4.03
2023-08-26T20:52:33.295Z,3.70
2023-08-26T20:55:05.134Z,3.00
2023-08-26T20:57:37.026Z,5.53
2023-08-26T21:00:10.998Z,3.10
2023-08-26T21:02:42.701Z,2.30
2023-08-26T21:05:15.872Z,3.90
2023-08-26T21:07:47.824Z,7.17
2023-08-26T21:10:19.754Z,3.37
2023-08-26T21:12:54.660Z,4.13
2023-08-26T21:15:26.549Z,4.40
2023-08-26T21:17:58.668Z,3.07
2023-08-26T21:20:32.444Z,3.63
2023-08-26T21:23:04.553Z,4.10
2023-08-26T21:25:36.472Z,3.57
2023-08-26T21:28:09.836Z,5.10
2023-08-26T21:30:41.854Z,4.07
2023-08-26T21:33:13.839Z,5.50
2023-08-26T21:35:47.182Z,3.37
2023-08-26T21:38:19.179Z,4.00
2023-08-26T21:40:51.031Z,7.60
2023-08-26T21:43:22.927Z,4.50
2023-08-26T21:45:54.831Z,2.63
2023-08-26T21:48:28.091Z,4.50
2023-08-26T21:51:01.244Z,2.57
2023-08-26T21:53:33.124Z,4.20
2023-08-26T21:56:05.059Z,3.63
2023-08-26T21:58:38.541Z,3.53
2023-08-26T22:01:10.770Z,4.57
2023-08-26T22:03:42.486Z,4.37
2023-08-26T22:06:15.542Z,3.63
2023-08-26T22:08:47.534Z,2.50
2023-08-26T22:11:19.370Z,3.40
2023-08-26T22:13:51.234Z,3.93
2023-08-26T22:16:23.556Z,3.20
2023-08-26T22:18:55.380Z,3.47
2023-08-26T22:21:28.333Z,3.60
2023-08-26T22:24:00.242Z,3.93
2023-08-26T22:26:32.115Z,2.90
2023-08-26T22:29:04.185Z,4.27
2023-08-26T22:31:36.036Z,4.10
2023-08-26T22:34:07.909Z,4.43
2023-08-26T22:36:41.377Z,4.17
2023-08-26T22:39:20.127Z,6.23
2023-08-26T22:41:53.379Z,4.33
2023-08-26T22:44:25.388Z,5.20
2023-08-26T22:46:57.218Z,5.97
2023-08-26T22:49:29.100Z,4.73
2023-08-26T22:52:02.329Z,3.67
2023-08-26T22:54:34.188Z,4.67
2023-08-26T22:57:07.110Z,4.63
2023-08-26T22:59:38.973Z,6.00
2023-08-26T23:02:10.946Z,4.47
2023-08-26T23:04:43.907Z,5.80
2023-08-26T23:07:17.214Z,7.80
2023-08-26T23:09:49.118Z,4.23
2023-08-26T23:12:21.016Z,5.07
2023-08-26T23:14:52.897Z,8.67
2023-08-26T23:17:26.420Z,3.87
2023-08-26T23:19:58.396Z,5.73
2023-08-26T23:22:31.385Z,4.20
2023-08-26T23:25:03.779Z,3.63
2023-08-26T23:27:36.169Z,5.13
2023-08-26T23:30:09.022Z,5.57
2023-08-26T23:32:41.810Z,3.27
2023-08-26T23:35:15.861Z,2.70
2023-08-26T23:37:49.163Z,2.53
2023-08-26T23:40:21.273Z,3.93
2023-08-26T23:42:52.861Z,4.00
2023-08-26T23:45:24.809Z,2.53
2023-08-26T23:47:57.824Z,3.83
2023-08-26T23:50:29.747Z,4.90
2023-08-26T23:53:02.992Z,2.93
2023-08-26T23:55:37.752Z,2.90
2023-08-26T23:58:10.706Z,3.67
